Big Bear Station Historical Data
Daily Summary for September 22, 2017 Units:  English    Metric   Both
« Previous Day
Next Day »
Daily Weekly Monthly Yearly Custom
  High: Low: Average:
Temperature: 56.1 °F 28.8 °F 40.9 °F
Dew Point: 41.1 °F 15.3 °F 30.5 °F
Humidity: 92 % 25 % 70 %
Wind Speed: 6.8 mph 0.0 mph 1.5 mph
Wind Gust: -999.0 mph - -
Wind:- - SW
Pressure: 29.98 in 29.95 in -
Precipitation: 0.00 in    
Historical Graphs
 
 
Tabular Data for September 22, 2017
Time Temperature Dew Point Pressure Wind Wind Speed Wind Gust Humidity Rainfall Rate (Hourly)
00:12 33.8 °F 31.2 °F 29.96 in Calm   -999.0 mph 90 % 0 in
00:27 33.6 °F 31.0 °F 29.96 in Calm   -999.0 mph 90 % 0 in
00:42 32.9 °F 30.0 °F 29.96 in South 1.7 mph -999.0 mph 89 % 0 in
00:57 32.2 °F 29.3 °F 29.95 in Calm   -999.0 mph 89 % 0 in
01:13 31.8 °F 28.9 °F 29.95 in South 1.7 mph -999.0 mph 89 % 0 in
01:28 31.6 °F 28.7 °F 29.95 in South 2.2 mph -999.0 mph 89 % 0 in
01:44 31.3 °F 28.4 °F 29.96 in South 1.7 mph -999.0 mph 89 % 0 in
01:59 31.1 °F 28.5 °F 29.95 in SSE 1.7 mph -999.0 mph 90 % 0 in
02:14 30.6 °F 28.0 °F 29.96 in South 2.7 mph -999.0 mph 90 % 0 in
02:29 30.4 °F 27.8 °F 29.95 in Calm   -999.0 mph 90 % 0 in
02:45 30.9 °F 28.9 °F 29.95 in Calm   -999.0 mph 92 % 0 in
03:00 30.6 °F 28.6 °F 29.95 in Calm   -999.0 mph 92 % 0 in
03:15 30.6 °F 28.6 °F 29.95 in SSW 2.2 mph -999.0 mph 92 % 0 in
03:30 30.4 °F 28.4 °F 29.95 in Calm   -999.0 mph 92 % 0 in
03:45 30.0 °F 28.0 °F 29.95 in Calm   -999.0 mph 92 % 0 in
04:01 30.7 °F 28.4 °F 29.95 in Calm   -999.0 mph 91 % 0 in
04:16 30.2 °F 27.9 °F 29.95 in Calm   -999.0 mph 91 % 0 in
04:31 30.4 °F 27.8 °F 29.95 in Calm   -999.0 mph 90 % 0 in
04:46 29.8 °F 26.1 °F 29.95 in Calm   -999.0 mph 86 % 0 in
05:01 29.5 °F 26.1 °F 29.95 in Calm   -999.0 mph 87 % 0 in
05:17 29.5 °F 26.4 °F 29.95 in Calm   -999.0 mph 88 % 0 in
05:32 29.1 °F 24.9 °F 29.95 in Calm   -999.0 mph 84 % 0 in
05:47 28.8 °F 24.6 °F 29.95 in Calm   -999.0 mph 84 % 0 in
06:02 28.8 °F 23.7 °F 29.95 in South 3.7 mph -999.0 mph 81 % 0 in
06:17 30.4 °F 24.1 °F 29.95 in SSW 2.7 mph -999.0 mph 77 % 0 in
06:33 32.9 °F 24.2 °F 29.96 in SSE 2.7 mph -999.0 mph 70 % 0 in
06:48 31.6 °F 23.3 °F 29.96 in Calm   -999.0 mph 71 % 0 in
07:03 32.9 °F 23.8 °F 29.96 in Calm   -999.0 mph 69 % 0 in
07:18 32.2 °F 24.8 °F 29.96 in Calm   -999.0 mph 74 % 0 in
07:33 32.4 °F 25.0 °F 29.97 in East 1.7 mph -999.0 mph 74 % 0 in
07:49 33.3 °F 25.6 °F 29.97 in South 2.2 mph -999.0 mph 73 % 0 in
08:04 35.6 °F 24.6 °F 29.97 in Calm   -999.0 mph 64 % 0 in
08:19 36.9 °F 23.5 °F 29.97 in Calm   -999.0 mph 58 % 0 in
08:34 38.3 °F 20.8 °F 29.97 in East 2.2 mph -999.0 mph 49 % 0 in
08:50 38.5 °F 22.4 °F 29.98 in Calm   -999.0 mph 52 % 0 in
09:05 39.0 °F 20.0 °F 29.98 in Calm   -999.0 mph 46 % 0 in
09:20 40.8 °F 22.1 °F 29.98 in Calm   -999.0 mph 47 % 0 in
09:35 41.5 °F 20.7 °F 29.98 in Calm   -999.0 mph 43 % 0 in
09:50 43.0 °F 20.3 °F 29.98 in Calm   -999.0 mph 40 % 0 in
10:06 44.1 °F 18.8 °F 29.98 in Calm   -999.0 mph 36 % 0 in
10:21 46.6 °F 16.0 °F 29.98 in WNW 6.3 mph -999.0 mph 29 % 0 in
10:36 48.7 °F 15.3 °F 29.98 in ESE 1.7 mph -999.0 mph 26 % 0 in
10:51 50.5 °F 16.0 °F 29.98 in ENE 1.7 mph -999.0 mph 25 % 0 in
11:07 52.7 °F 21.3 °F 29.98 in NW 4.2 mph -999.0 mph 29 % 0 in
11:22 53.1 °F 26.2 °F 29.98 in NNW 4.2 mph -999.0 mph 35 % 0 in
11:37 53.2 °F 28.2 °F 29.98 in NNW 4.2 mph -999.0 mph 38 % 0 in
11:52 53.4 °F 27.1 °F 29.98 in NW 3.7 mph -999.0 mph 36 % 0 in
12:08 53.1 °F 28.1 °F 29.98 in ESE 2.2 mph -999.0 mph 38 % 0 in
12:23 54.3 °F 29.2 °F 29.98 in NW 6.8 mph -999.0 mph 38 % 0 in
12:38 55.0 °F 32.9 °F 29.98 in North 3.2 mph -999.0 mph 43 % 0 in
12:53 55.2 °F 34.8 °F 29.97 in NW 5.8 mph -999.0 mph 46 % 0 in
13:08 54.1 °F 34.8 °F 29.97 in West 4.7 mph -999.0 mph 48 % 0 in
13:24 56.1 °F 34.5 °F 29.97 in NNW 3.7 mph -999.0 mph 44 % 0 in
13:39 53.6 °F 35.4 °F 29.97 in South 1.1 mph -999.0 mph 50 % 0 in
13:54 55.2 °F 36.9 °F 29.97 in NNW 4.7 mph -999.0 mph 50 % 0 in
14:10 55.2 °F 37.4 °F 29.97 in NNW 4.7 mph -999.0 mph 51 % 0 in
14:25 54.7 °F 37.9 °F 29.97 in NW 3.7 mph -999.0 mph 53 % 0 in
14:40 54.3 °F 38.5 °F 29.97 in NNW 1.7 mph -999.0 mph 55 % 0 in
14:55 53.8 °F 38.9 °F 29.96 in NNW 3.7 mph -999.0 mph 57 % 0 in
15:11 53.6 °F 39.6 °F 29.97 in NNW 4.7 mph -999.0 mph 59 % 0 in
15:26 53.4 °F 41.1 °F 29.97 in WNW 3.7 mph -999.0 mph 63 % 0 in
15:41 52.9 °F 40.2 °F 29.96 in NE 2.7 mph -999.0 mph 62 % 0 in
15:57 51.6 °F 39.8 °F 29.96 in WNW 2.2 mph -999.0 mph 64 % 0 in
16:12 51.1 °F 39.3 °F 29.96 in NNE 3.2 mph -999.0 mph 64 % 0 in
16:27 51.4 °F 40.4 °F 29.96 in NNE 3.7 mph -999.0 mph 66 % 0 in
16:43 50.5 °F 40.3 °F 29.96 in NW 3.7 mph -999.0 mph 68 % 0 in
16:58 50.4 °F 40.6 °F 29.96 in NW 2.7 mph -999.0 mph 69 % 0 in
17:13 50.9 °F 40.3 °F 29.96 in SW 4.7 mph -999.0 mph 67 % 0 in
17:28 50.5 °F 39.6 °F 29.96 in NW 2.7 mph -999.0 mph 66 % 0 in
17:43 48.9 °F 39.5 °F 29.96 in NW 4.7 mph -999.0 mph 70 % 0 in
17:59 48.0 °F 38.7 °F 29.96 in NW 3.2 mph -999.0 mph 70 % 0 in
18:14 47.1 °F 38.2 °F 29.96 in Calm   -999.0 mph 71 % 0 in
18:29 46.2 °F 37.3 °F 29.96 in Calm   -999.0 mph 71 % 0 in
18:44 44.6 °F 36.5 °F 29.96 in Calm   -999.0 mph 73 % 0 in
18:59 43.0 °F 36.0 °F 29.96 in Calm   -999.0 mph 76 % 0 in
19:15 41.7 °F 35.7 °F 29.96 in Calm   -999.0 mph 79 % 0 in
19:30 41.0 °F 35.6 °F 29.96 in Calm   -999.0 mph 81 % 0 in
19:45 40.3 °F 35.2 °F 29.97 in Calm   -999.0 mph 82 % 0 in
20:00 39.6 °F 35.2 °F 29.97 in Calm   -999.0 mph 84 % 0 in
20:15 39.0 °F 34.9 °F 29.97 in Calm   -999.0 mph 85 % 0 in
20:31 38.5 °F 34.7 °F 29.97 in Calm   -999.0 mph 86 % 0 in
20:46 38.1 °F 34.3 °F 29.97 in Calm   -999.0 mph 86 % 0 in
21:01 37.2 °F 33.4 °F 29.97 in Calm   -999.0 mph 86 % 0 in
21:16 37.4 °F 33.6 °F 29.97 in Calm   -999.0 mph 86 % 0 in
21:32 36.9 °F 33.1 °F 29.97 in Calm   -999.0 mph 86 % 0 in
21:47 36.5 °F 32.4 °F 29.97 in Calm   -999.0 mph 85 % 0 in
22:02 36.1 °F 32.3 °F 29.97 in Calm   -999.0 mph 86 % 0 in
22:17 35.8 °F 32.3 °F 29.97 in Calm   -999.0 mph 87 % 0 in
22:32 35.6 °F 32.4 °F 29.96 in Calm   -999.0 mph 88 % 0 in
22:48 36.0 °F 32.5 °F 29.96 in South 1.7 mph -999.0 mph 87 % 0 in
23:03 35.4 °F 31.6 °F 29.96 in Calm   -999.0 mph 86 % 0 in
23:18 35.4 °F 32.2 °F 29.96 in Calm   -999.0 mph 88 % 0 in
23:33 35.4 °F 32.5 °F 29.96 in Calm   -999.0 mph 89 % 0 in
23:48 35.6 °F 32.7 °F 29.96 in Calm   -999.0 mph 89 % 0 in
Big Bear CA Weather
Compliments of Weather Underground - 1.5 mb